Eldridge, Alabama
Current Conditions -  °F | °C
As of 7:55 PM on Monday 20 Oct 2014 (Local Time) from KJFX Reporting Station
Clear Clear  
Wind Chill: 13°   Ceiling: Unl
Heat Index: 13°   Visibility: 10mi
Dew Point: 12°   Wind: 0mph
Humidity: 94%   Direction: NA
Pressure: 30.04"   Gusts: NA
Location:  33.92°N, 87.62°W
Report Text: KJFX 210055Z AUTO 00000KT 10SM CLR 13/12 A3004 RMK A02 P-128
Loading
Personal Weather Stations






























Interactive Weather Map
Tropical Storm Tracking
New forecast layout! Learn more

10-Day Weather Forecast

Advertisements
Track Severe Weather on mobile